Time;durP1;ratioP1;P1;durP2;ratioP2;P2;SDS_P1;SDS_P2;PMS_P1;PMS_P2;Temp;Humidity;BMP_temperature;BMP_pressure;BME280_temperature;BME280_humidity;BME280_pressure;Samples;Min_cycle;Max_cycle;Signal;HPM_P1;HPM_P2
2023/07/09 00:02:38;;;;;;;2.83;0.93;;;;;;;19.95;65.76;100946.44;10373022;28;96891;-88
2023/07/09 00:07:45;;;;;;;1.80;1.08;;;;;;;19.77;66.15;100945.84;10371110;28;96819;-89
2023/07/09 00:12:52;;;;;;;2.88;1.00;;;;;;;19.60;66.71;100942.56;10371029;28;96663;-89
2023/07/09 00:18:00;;;;;;;3.33;1.20;;;;;;;19.73;66.25;100948.84;10371649;28;96968;-89
2023/07/09 00:23:06;;;;;;;1.23;0.70;;;;;;;19.60;66.89;100951.44;10371270;28;97007;-89
2023/07/09 00:28:17;;;;;;;2.53;0.80;;;;;;;19.57;66.90;100957.00;10371915;28;97905;-89
2023/07/09 00:33:21;;;;;;;1.10;0.82;;;;;;;19.80;66.74;100953.69;10363613;28;97312;-88
2023/07/09 00:38:26;;;;;;;3.28;1.00;;;;;;;19.95;66.46;100955.31;10371613;28;97513;-90
2023/07/09 00:43:37;;;;;;;2.28;1.20;;;;;;;20.12;66.22;100955.03;10372651;28;97741;-89
2023/07/09 00:48:42;;;;;;;3.50;1.20;;;;;;;20.17;66.21;100950.22;10370428;28;96819;-88
2023/07/09 00:53:49;;;;;;;1.77;1.13;;;;;;;20.09;66.51;100952.56;10371045;28;96841;-89
2023/07/09 00:59:00;;;;;;;3.42;1.40;;;;;;;20.24;66.12;100956.88;10370037;28;96723;-89
2023/07/09 01:04:05;;;;;;;2.35;1.10;;;;;;;20.29;66.15;100957.41;10370226;28;96698;-89
2023/07/09 01:09:10;;;;;;;1.80;0.90;;;;;;;20.17;66.38;100952.03;10332791;28;96772;-89
2023/07/09 01:14:23;;;;;;;2.05;1.00;;;;;;;20.20;66.41;100952.69;10332739;28;96817;-91
2023/07/09 01:19:29;;;;;;;1.42;0.95;;;;;;;20.17;66.29;100958.25;10334286;28;97578;-95
2023/07/09 01:25:01;;;;;;;2.15;0.93;;;;;;;19.93;67.09;100951.88;10365594;28;97232;-95
2023/07/09 01:30:10;;;;;;;2.65;1.52;;;;;;;19.88;66.63;100955.81;10367852;28;96855;-90
2023/07/09 01:35:17;;;;;;;1.40;0.85;;;;;;;19.96;66.35;100957.00;10333738;28;97218;-89
2023/07/09 01:40:27;;;;;;;2.63;1.08;;;;;;;20.05;66.01;100966.22;10333354;28;96559;-92
2023/07/09 01:45:38;;;;;;;1.70;1.03;;;;;;;20.04;65.79;100967.19;10293135;28;96810;-90
2023/07/09 01:50:43;;;;;;;1.83;1.15;;;;;;;19.96;65.78;100973.03;10296059;28;96968;-89
2023/07/09 01:55:50;;;;;;;1.33;0.80;;;;;;;19.79;66.60;100988.47;10304071;28;96951;-89
2023/07/09 02:00:55;;;;;;;2.35;1.20;;;;;;;19.59;66.99;100980.91;10334901;28;96729;-89
2023/07/09 02:05:59;;;;;;;1.42;0.85;;;;;;;19.20;68.23;100982.50;10335596;28;97335;-89
2023/07/09 02:11:07;;;;;;;2.38;1.10;;;;;;;19.41;67.37;100976.78;10334495;28;96693;-89
2023/07/09 02:16:11;;;;;;;2.65;1.00;;;;;;;19.50;67.31;100974.38;10335285;28;97523;-89
2023/07/09 02:21:16;;;;;;;4.00;1.25;;;;;;;19.35;67.70;100978.00;10334042;28;97270;-90
2023/07/09 02:26:23;;;;;;;2.95;1.00;;;;;;;19.23;68.29;100976.13;10335178;28;97370;-90
2023/07/09 02:31:29;;;;;;;3.28;0.80;;;;;;;19.42;67.95;100973.16;10335513;28;97226;-90
2023/07/09 02:36:34;;;;;;;2.15;1.10;;;;;;;19.24;68.25;100975.16;10333832;28;96652;-89
2023/07/09 02:41:43;;;;;;;2.78;0.98;;;;;;;19.15;68.44;100978.41;10332737;28;96974;-89
2023/07/09 02:46:47;;;;;;;3.33;1.10;;;;;;;19.40;67.59;100983.03;10333946;28;97296;-89
2023/07/09 02:51:51;;;;;;;2.53;1.08;;;;;;;19.51;67.11;100973.41;10335369;28;97393;-91
2023/07/09 02:56:58;;;;;;;4.28;0.77;;;;;;;19.50;66.83;100974.38;10338590;28;96674;-92
2023/07/09 03:02:05;;;;;;;1.92;0.98;;;;;;;19.28;67.33;100985.53;10352847;28;96587;-93
2023/07/09 03:07:10;;;;;;;2.30;1.10;;;;;;;19.21;67.74;100980.69;10391839;28;96668;-90
2023/07/09 03:12:17;;;;;;;2.72;1.38;;;;;;;19.20;67.60;100979.81;10379175;28;97071;-90
2023/07/09 03:17:21;;;;;;;2.17;1.20;;;;;;;18.70;68.61;100978.59;10375193;28;96744;-89
2023/07/09 03:22:26;;;;;;;2.63;1.08;;;;;;;18.82;68.28;100993.84;10373691;28;96812;-90
2023/07/09 03:27:33;;;;;;;1.85;1.23;;;;;;;18.63;68.94;100988.78;10374256;28;96860;-89
2023/07/09 03:32:37;;;;;;;4.90;1.30;;;;;;;18.59;68.77;101002.41;10338798;28;96808;-90
2023/07/09 03:37:41;;;;;;;2.33;1.25;;;;;;;18.60;68.67;100998.78;10332686;28;96589;-90
2023/07/09 03:42:49;;;;;;;2.22;1.27;;;;;;;18.04;70.06;100996.78;10331864;28;96812;-90
2023/07/09 03:47:53;;;;;;;1.80;1.00;;;;;;;18.21;69.65;100988.69;10331648;28;96886;-90
2023/07/09 03:52:57;;;;;;;;;;;;;;;18.32;70.12;100990.69;10331727;28;96787;-90
2023/07/09 03:58:04;;;;;;;4.57;1.30;;;;;;;18.00;70.08;100996.09;10332759;28;96671;-90
2023/07/09 04:03:10;;;;;;;2.22;0.98;;;;;;;18.25;69.59;100992.03;10331369;28;97603;-90
2023/07/09 04:08:14;;;;;;;1.95;1.10;;;;;;;18.47;68.87;100997.81;10330399;28;97002;-90
2023/07/09 04:13:21;;;;;;;2.20;0.90;;;;;;;18.55;68.58;101000.88;10331498;28;98431;-89
2023/07/09 04:18:26;;;;;;;2.95;1.20;;;;;;;18.51;68.75;101004.66;10331235;28;96735;-90
2023/07/09 04:23:31;;;;;;;1.50;1.08;;;;;;;18.26;69.44;101009.72;10329077;28;96879;-90
2023/07/09 04:28:39;;;;;;;2.17;1.15;;;;;;;18.48;68.92;101010.19;10331254;28;96802;-91
2023/07/09 04:33:45;;;;;;;2.30;1.10;;;;;;;17.99;69.91;101025.50;10289265;28;96656;-90
2023/07/09 04:38:49;;;;;;;4.30;1.65;;;;;;;18.25;69.36;101022.16;10290186;28;96907;-90
2023/07/09 04:43:57;;;;;;;2.95;1.00;;;;;;;18.00;70.53;101028.06;10289222;28;96758;-90
2023/07/09 04:49:01;;;;;;;3.47;1.20;;;;;;;18.04;70.10;101026.09;10325769;28;96621;-90
2023/07/09 04:54:06;;;;;;;3.33;1.38;;;;;;;18.24;69.22;101023.13;10329725;28;97948;-89
2023/07/09 04:59:12;;;;;;;2.72;1.10;;;;;;;17.88;69.81;101028.78;10330564;28;96998;-89
2023/07/09 05:04:17;;;;;;;2.22;1.15;;;;;;;18.01;70.10;101032.47;10330542;28;97828;-90
2023/07/09 05:09:25;;;;;;;3.63;1.20;;;;;;;18.09;69.91;101029.34;10329645;28;97898;-90
2023/07/09 05:14:32;;;;;;;3.70;1.33;;;;;;;18.28;69.42;101034.47;10328197;28;97426;-90
2023/07/09 05:19:38;;;;;;;3.38;1.30;;;;;;;18.34;68.80;101032.28;10331152;28;96965;-89
2023/07/09 05:24:43;;;;;;;2.08;1.10;;;;;;;18.32;69.03;101036.84;10335605;28;96713;-89
2023/07/09 05:29:50;;;;;;;3.65;1.13;;;;;;;17.79;70.46;101026.66;10318044;28;97490;-89
2023/07/09 05:34:54;;;;;;;2.47;1.10;;;;;;;17.99;69.70;101034.34;10295002;28;96955;-89
2023/07/09 05:39:58;;;;;;;2.22;1.10;;;;;;;18.01;69.78;101037.78;10331012;28;96695;-89
2023/07/09 05:45:07;;;;;;;3.08;1.10;;;;;;;18.23;69.43;101044.53;10335644;28;96613;-89
2023/07/09 05:50:12;;;;;;;1.95;0.98;;;;;;;18.05;69.47;101051.78;10335747;28;96628;-89
2023/07/09 05:55:15;;;;;;;3.15;1.20;;;;;;;18.03;69.93;101057.22;10363662;22;96896;-90
2023/07/09 06:00:21;;;;;;;3.45;1.30;;;;;;;18.39;69.52;101053.31;10376419;28;97334;-89
2023/07/09 06:05:24;;;;;;;3.50;1.40;;;;;;;18.46;69.58;101062.69;10375542;28;97718;-89
2023/07/09 06:10:27;;;;;;;3.15;1.50;;;;;;;18.51;69.57;101064.16;10376540;28;97377;-89
2023/07/09 06:15:32;;;;;;;2.75;1.40;;;;;;;18.44;69.72;101069.91;10375741;28;97613;-88
2023/07/09 06:20:35;;;;;;;2.42;1.25;;;;;;;18.33;70.12;101080.34;10375753;28;97120;-88
2023/07/09 06:25:39;;;;;;;1.95;1.20;;;;;;;18.62;69.87;101082.19;10375142;28;97296;-88
2023/07/09 06:30:45;;;;;;;3.83;1.50;;;;;;;18.62;69.92;101099.06;10375477;28;96960;-89
2023/07/09 06:35:51;;;;;;;2.05;1.13;;;;;;;18.78;69.68;101099.84;10375229;28;96683;-88
2023/07/09 06:40:57;;;;;;;3.05;1.25;;;;;;;18.76;69.59;101103.56;10375881;28;97017;-88
2023/07/09 06:46:04;;;;;;;3.83;1.60;;;;;;;18.98;69.37;101111.97;10375222;28;97232;-88
2023/07/09 06:51:11;;;;;;;2.92;1.40;;;;;;;19.06;69.07;101115.91;10374772;28;96648;-88
2023/07/09 06:56:15;;;;;;;4.78;1.42;;;;;;;19.10;69.22;101116.56;10372697;28;97269;-89
2023/07/09 07:01:21;;;;;;;2.20;1.30;;;;;;;19.13;69.18;101129.72;10380528;28;97053;-89
2023/07/09 07:06:25;;;;;;;1.95;1.20;;;;;;;19.40;68.30;101128.06;10406855;28;96653;-88
2023/07/09 07:11:30;;;;;;;;;;;;;;;19.27;69.06;101132.41;10333496;28;96727;-89
2023/07/09 07:16:37;;;;;;;1.83;0.85;;;;;;;19.63;67.75;101126.63;10333536;28;96591;-89
2023/07/09 07:21:41;;;;;;;1.92;1.00;;;;;;;19.86;67.29;101126.00;10399529;28;97075;-88
2023/07/09 07:26:45;;;;;;;3.13;1.25;;;;;;;19.90;67.02;101127.53;10415312;28;96615;-88
2023/07/09 07:31:52;;;;;;;2.55;0.93;;;;;;;20.16;66.07;101124.03;10345409;27;96808;-89
2023/07/09 07:36:56;;;;;;;1.88;1.00;;;;;;;20.38;65.44;101132.41;10352612;28;96729;-89
2023/07/09 07:42:01;;;;;;;2.17;1.10;;;;;;;20.55;65.03;101124.13;10372932;28;96744;-90
2023/07/09 07:47:11;;;;;;;4.80;1.45;;;;;;;20.36;65.74;101121.81;10371789;28;96698;-91
2023/07/09 07:52:15;;;;;;;3.33;1.42;;;;;;;20.60;64.97;101123.81;10374303;28;96744;-91
2023/07/09 07:57:20;;;;;;;1.65;1.10;;;;;;;20.78;64.25;101119.88;10373750;28;97563;-90
2023/07/09 08:02:28;;;;;;;4.40;1.55;;;;;;;20.69;63.79;101121.38;10380690;28;97634;-94
2023/07/09 08:07:36;;;;;;;1.90;1.00;;;;;;;20.80;63.66;101131.34;10388461;28;96539;-94
2023/07/09 08:12:43;;;;;;;2.28;1.25;;;;;;;20.99;63.27;101121.09;10414665;28;96738;-92
2023/07/09 08:17:54;;;;;;;3.28;1.00;;;;;;;20.89;63.09;101117.34;10434794;28;96704;-93
2023/07/09 08:23:04;;;;;;;4.60;1.65;;;;;;;20.95;61.90;101120.47;10439181;28;96642;-93
2023/07/09 08:28:14;;;;;;;1.70;1.02;;;;;;;21.28;61.62;101117.28;10432230;27;97117;-92
2023/07/09 08:33:35;;;;;;;3.35;1.25;;;;;;;21.37;60.39;101114.84;10358661;28;97015;-94
2023/07/09 08:38:49;;;;;;;2.60;1.10;;;;;;;21.61;60.54;101112.22;10359074;28;97071;-94
2023/07/09 08:44:15;;;;;;;1.98;1.15;;;;;;;21.98;59.79;101102.38;10377766;28;96516;-93
2023/07/09 08:49:30;;;;;;;2.50;1.05;;;;;;;22.11;59.34;101100.53;10435991;27;97313;-90
2023/07/09 08:54:39;;;;;;;3.22;1.10;;;;;;;22.24;59.18;101101.38;10428889;28;96696;-95
2023/07/09 08:59:50;;;;;;;3.80;1.63;;;;;;;22.42;58.97;101106.19;10437716;28;96516;-94
2023/07/09 09:05:00;;;;;;;2.47;0.82;;;;;;;22.75;58.26;101107.31;10393704;28;96618;-95
2023/07/09 09:10:05;;;;;;;4.20;0.98;;;;;;;23.14;57.20;101101.56;10412632;28;96734;-90
2023/07/09 09:15:17;;;;;;;2.95;1.08;;;;;;;23.29;57.29;101097.69;10390357;28;97269;-94
2023/07/09 09:20:28;;;;;;;3.92;1.27;;;;;;;23.47;56.80;101105.16;10439418;28;96531;-93
2023/07/09 09:25:34;;;;;;;2.85;1.08;;;;;;;23.50;56.05;101094.16;10428767;28;96641;-92
2023/07/09 09:30:41;;;;;;;1.65;0.77;;;;;;;23.77;55.45;101093.78;10443136;28;96656;-95
2023/07/09 09:35:51;;;;;;;2.25;0.98;;;;;;;24.01;54.74;101088.28;10424437;28;96794;-93
2023/07/09 09:41:02;;;;;;;2.10;0.82;;;;;;;24.13;54.18;101087.25;10397296;28;96653;-94
2023/07/09 09:46:08;;;;;;;3.03;0.90;;;;;;;24.30;53.41;101078.66;10408904;28;96577;-95
2023/07/09 09:51:18;;;;;;;2.05;0.90;;;;;;;24.47;52.89;101078.97;10406891;28;96990;-94
2023/07/09 09:56:30;;;;;;;2.05;0.73;;;;;;;24.56;51.43;101088.97;10450016;27;96610;-94
2023/07/09 10:01:38;;;;;;;2.78;0.80;;;;;;;24.58;50.51;101084.28;10435085;27;96551;-93
2023/07/09 10:06:54;;;;;;;2.50;0.77;;;;;;;24.91;50.38;101087.81;10413957;28;96577;-93
2023/07/09 10:12:12;;;;;;;2.05;0.63;;;;;;;25.08;49.23;101084.53;10403026;28;96674;-92
2023/07/09 10:17:27;;;;;;;1.73;0.65;;;;;;;25.09;48.87;101087.09;10406854;28;96529;-94
2023/07/09 10:22:51;;;;;;;2.70;0.70;;;;;;;24.89;48.01;101082.56;10404803;28;96575;-90
2023/07/09 10:28:11;;;;;;;2.78;1.13;;;;;;;25.19;48.33;101079.91;10412504;28;96583;-94
2023/07/09 10:33:28;;;;;;;2.55;0.80;;;;;;;25.37;47.90;101082.84;10401964;28;96689;-95
2023/07/09 10:39:02;;;;;;;4.63;1.20;;;;;;;25.68;48.71;101082.69;10399020;28;96737;-92
2023/07/09 10:44:16;;;;;;;1.77;0.80;;;;;;;25.68;48.58;101068.34;10400272;28;96795;-94
2023/07/09 10:49:22;;;;;;;2.85;0.90;;;;;;;25.88;47.63;101070.16;10385856;28;97508;-96
2023/07/09 10:54:35;;;;;;;1.75;0.85;;;;;;;25.97;47.08;101066.63;10383612;28;96917;-96
2023/07/09 10:59:43;;;;;;;2.13;0.75;;;;;;;26.24;46.45;101064.13;10393092;28;97102;-95
2023/07/09 11:04:53;;;;;;;2.35;0.68;;;;;;;26.22;46.64;101049.91;10391220;28;97266;-95
2023/07/09 11:10:00;;;;;;;1.98;0.70;;;;;;;26.31;46.88;101048.19;10395763;28;96851;-95
2023/07/09 11:15:10;;;;;;;2.08;1.00;;;;;;;26.45;45.26;101056.78;10384030;28;96683;-96
2023/07/09 11:20:33;;;;;;;2.58;0.70;;;;;;;26.95;45.59;101060.97;10388094;28;96661;-96
2023/07/09 11:25:50;;;;;;;2.23;0.73;;;;;;;26.79;44.98;101052.63;10384516;28;97037;-95
2023/07/09 11:30:56;;;;;;;1.80;0.82;;;;;;;26.85;44.48;101048.47;10385019;28;96724;-89
2023/07/09 11:36:10;;;;;;;3.05;0.90;;;;;;;27.05;43.94;101055.56;10381157;28;96722;-95
2023/07/09 11:41:29;;;;;;;1.95;0.80;;;;;;;27.06;42.39;101040.22;10384880;28;97074;-92
2023/07/09 11:46:36;;;;;;;2.17;1.00;;;;;;;27.04;44.04;101037.66;10381516;28;97304;-93
2023/07/09 11:51:49;;;;;;;2.15;0.80;;;;;;;26.98;43.55;101039.06;10401434;28;96708;-91
2023/07/09 11:56:59;;;;;;;1.98;0.80;;;;;;;26.83;43.66;101034.28;10421250;28;97406;-87
2023/07/09 12:02:03;;;;;;;2.45;1.08;;;;;;;26.92;43.51;101034.22;10392695;28;97003;-92
2023/07/09 12:07:08;;;;;;;3.80;1.00;;;;;;;27.04;43.22;101034.97;10382640;28;97509;-93
2023/07/09 12:12:27;;;;;;;2.95;1.08;;;;;;;27.21;42.83;101036.91;10421541;28;97525;-94
2023/07/09 12:17:33;;;;;;;1.50;0.90;;;;;;;27.40;43.01;101033.25;10423060;27;96715;-93
2023/07/09 12:22:38;;;;;;;2.28;1.25;;;;;;;27.26;42.80;101036.44;10422034;28;97247;-89
2023/07/09 12:27:45;;;;;;;2.45;1.23;;;;;;;27.51;43.09;101030.38;10388478;28;96767;-89
2023/07/09 12:32:53;;;;;;;3.38;1.42;;;;;;;27.67;42.63;101038.69;10379838;28;97623;-88
2023/07/09 12:37:58;;;;;;;1.70;1.10;;;;;;;27.74;42.48;101029.81;10380589;28;96817;-93
2023/07/09 12:43:06;;;;;;;2.50;1.00;;;;;;;27.69;41.57;101026.72;10402226;28;96712;-89
2023/07/09 12:48:14;;;;;;;3.03;1.13;;;;;;;27.89;42.14;101017.47;10424501;28;96672;-93
2023/07/09 12:53:21;;;;;;;1.85;1.13;;;;;;;27.79;41.54;101021.25;10420689;28;96688;-91
2023/07/09 12:58:31;;;;;;;1.70;0.93;;;;;;;27.72;41.42;101029.13;10412765;27;96916;-95
2023/07/09 13:03:36;;;;;;;3.22;1.17;;;;;;;27.90;41.20;101023.75;10377941;28;96697;-91
2023/07/09 13:08:44;;;;;;;1.85;1.20;;;;;;;28.10;41.38;101006.34;10378941;28;97022;-92
2023/07/09 13:14:01;;;;;;;3.50;1.25;;;;;;;28.27;41.50;101002.81;10380286;28;96769;-88
2023/07/09 13:19:06;;;;;;;1.48;0.90;;;;;;;27.97;40.66;101003.19;10418603;28;96633;-89
2023/07/09 13:24:16;;;;;;;2.78;1.30;;;;;;;27.85;41.33;100999.00;10420725;28;96790;-90
2023/07/09 13:29:24;;;;;;;2.75;1.27;;;;;;;28.25;40.73;100995.84;10421832;28;96698;-90
2023/07/09 13:34:33;;;;;;;2.15;1.00;;;;;;;28.41;40.30;100987.91;10398123;28;96971;-90
2023/07/09 13:39:38;;;;;;;3.33;1.17;;;;;;;28.54;39.91;100983.78;10378622;28;96625;-89
2023/07/09 13:44:47;;;;;;;2.35;1.27;;;;;;;28.65;39.12;100990.78;10386655;28;96825;-93
2023/07/09 13:49:52;;;;;;;1.08;0.90;;;;;;;28.57;39.66;100988.88;10375969;28;97434;-92
2023/07/09 13:54:57;;;;;;;2.20;1.13;;;;;;;28.62;39.11;100983.00;10343755;28;96915;-94
2023/07/09 14:00:05;;;;;;;1.92;0.98;;;;;;;28.73;39.38;100972.75;10358188;28;96738;-90
2023/07/09 14:05:12;;;;;;;2.50;1.10;;;;;;;28.78;39.69;100972.25;10386670;28;96797;-92
2023/07/09 14:10:17;;;;;;;3.65;1.35;;;;;;;28.74;39.56;100973.59;10424812;28;96774;-90
2023/07/09 14:15:27;;;;;;;2.10;0.90;;;;;;;28.80;38.97;100968.38;10427780;28;96635;-92
2023/07/09 14:20:32;;;;;;;2.30;1.10;;;;;;;28.85;39.76;100959.75;10429315;27;97913;-89
2023/07/09 14:25:36;;;;;;;3.90;1.33;;;;;;;28.80;39.39;100959.41;10427193;28;96606;-90
2023/07/09 14:30:46;;;;;;;2.38;0.90;;;;;;;29.07;38.91;100957.38;10425365;28;96673;-93
2023/07/09 14:35:51;;;;;;;1.83;1.10;;;;;;;29.17;39.19;100958.09;10425663;28;97124;-93
2023/07/09 14:40:58;;;;;;;1.15;0.90;;;;;;;29.08;38.92;100948.25;10414460;28;97317;-95
2023/07/09 14:46:06;;;;;;;3.60;1.25;;;;;;;29.43;38.72;100947.22;10385849;28;96635;-89
2023/07/09 14:51:16;;;;;;;2.13;1.10;;;;;;;29.47;38.97;100943.13;10384407;28;96696;-96
2023/07/09 14:56:22;;;;;;;1.88;1.05;;;;;;;29.61;38.51;100934.38;10382932;28;96707;-96
2023/07/09 15:01:30;;;;;;;2.10;1.10;;;;;;;29.57;38.38;100927.59;10385156;28;96962;-94
2023/07/09 15:06:35;;;;;;;2.75;1.20;;;;;;;29.55;38.80;100921.50;10384163;28;96721;-92
2023/07/09 15:11:39;;;;;;;4.25;1.40;;;;;;;29.09;38.24;100922.84;10385156;28;97637;-91
2023/07/09 15:16:46;;;;;;;2.40;1.20;;;;;;;29.14;38.55;100922.31;10408988;28;96655;-89
2023/07/09 15:21:50;;;;;;;1.92;0.90;;;;;;;29.51;38.45;100913.84;10426005;27;96636;-88
2023/07/09 15:26:55;;;;;;;1.90;0.77;;;;;;;29.49;38.58;100913.13;10423851;28;96699;-93
2023/07/09 15:32:00;;;;;;;3.17;1.10;;;;;;;29.22;38.69;100906.13;10425227;28;96777;-94
2023/07/09 15:37:13;;;;;;;2.55;1.35;;;;;;;29.15;38.74;100902.34;10424626;27;96605;-95
2023/07/09 15:42:17;;;;;;;1.92;1.10;;;;;;;29.01;39.04;100903.84;10425706;27;96604;-89
2023/07/09 15:47:28;;;;;;;3.15;1.20;;;;;;;29.05;38.52;100904.34;10425596;27;96762;-95
2023/07/09 15:52:33;;;;;;;2.78;1.15;;;;;;;29.11;39.06;100899.13;10423242;27;96697;-90
2023/07/09 15:57:38;;;;;;;2.17;1.20;;;;;;;28.96;39.59;100900.75;10423540;28;96637;-90
2023/07/09 16:02:50;;;;;;;3.10;1.20;;;;;;;28.63;39.97;100904.28;10390686;28;97081;-96
2023/07/09 16:07:57;;;;;;;2.72;1.30;;;;;;;28.76;40.19;100904.69;10383065;28;97031;-89
2023/07/09 16:13:02;;;;;;;2.28;1.13;;;;;;;28.68;40.10;100903.78;10382216;28;96708;-95
2023/07/09 16:18:11;;;;;;;2.45;1.13;;;;;;;28.52;40.13;100900.97;10384198;28;97216;-92
2023/07/09 16:23:35;;;;;;;2.10;1.27;;;;;;;28.17;40.79;100891.03;10391656;28;96698;-95
2023/07/09 16:28:39;;;;;;;2.72;1.60;;;;;;;28.26;40.86;100900.94;10426733;28;97044;-88
2023/07/09 16:33:49;;;;;;;3.58;2.10;;;;;;;28.31;40.93;100904.03;10426041;28;96673;-91
2023/07/09 16:38:54;;;;;;;3.83;2.30;;;;;;;28.16;40.88;100888.50;10423712;28;96744;-91
2023/07/09 16:43:58;;;;;;;6.38;3.10;;;;;;;28.19;40.78;100889.03;10424543;27;96715;-95
2023/07/09 16:49:32;;;;;;;5.07;3.30;;;;;;;28.08;41.82;100886.59;10427289;28;96654;-92
2023/07/09 16:54:37;;;;;;;3.83;2.00;;;;;;;27.75;43.02;100884.63;10423179;28;96771;-95
2023/07/09 16:59:42;;;;;;;6.15;2.65;;;;;;;27.56;44.49;100888.28;10414663;28;96713;-87
2023/07/09 17:04:51;;;;;;;3.28;1.90;;;;;;;27.41;46.01;100905.16;10379524;28;97463;-92
2023/07/09 17:09:57;;;;;;;3.13;1.45;;;;;;;27.44;45.41;100899.47;10381252;28;96633;-94
2023/07/09 17:15:17;;;;;;;3.22;1.17;;;;;;;27.02;46.45;100912.63;10380802;28;96745;-94
2023/07/09 17:20:25;;;;;;;3.35;1.27;;;;;;;27.26;46.36;100899.44;10390375;28;97420;-93
2023/07/09 17:25:32;;;;;;;2.13;0.93;;;;;;;27.08;46.81;100908.53;10387089;28;96888;-91
2023/07/09 17:30:37;;;;;;;4.07;1.40;;;;;;;26.98;47.49;100903.13;10390230;28;97338;-92
2023/07/09 17:35:48;;;;;;;2.00;1.15;;;;;;;26.94;47.41;100907.09;10388134;28;96713;-91
2023/07/09 17:40:58;;;;;;;2.88;1.00;;;;;;;26.86;47.92;100907.88;10387732;28;96809;-94
2023/07/09 17:46:03;;;;;;;1.77;1.17;;;;;;;26.84;47.97;100904.47;10387783;28;96627;-87
2023/07/09 17:51:27;;;;;;;2.40;0.90;;;;;;;26.81;48.13;100909.31;10390622;28;97597;-94
2023/07/09 17:56:35;;;;;;;2.25;0.90;;;;;;;26.78;48.24;100904.22;10393096;28;97397;-94
2023/07/09 18:01:39;;;;;;;2.63;1.13;;;;;;;26.60;48.53;100909.53;10386649;28;96881;-92
2023/07/09 18:06:51;;;;;;;2.03;0.80;;;;;;;26.51;49.08;100913.09;10387111;28;96655;-92
2023/07/09 18:11:56;;;;;;;2.72;0.90;;;;;;;26.39;48.99;100919.66;10390057;28;96709;-94
2023/07/09 18:17:03;;;;;;;5.55;1.33;;;;;;;26.26;48.91;100929.03;10388836;28;97726;-89
2023/07/09 18:22:17;;;;;;;2.28;0.88;;;;;;;26.14;49.76;100919.41;10376884;28;97252;-94
2023/07/09 18:27:26;;;;;;;2.88;1.08;;;;;;;26.13;49.24;100925.78;10355825;22;98910;-89
2023/07/09 18:32:30;;;;;;;2.28;0.70;;;;;;;25.92;49.96;100930.50;10349015;28;96668;-91
2023/07/09 18:37:37;;;;;;;3.17;1.02;;;;;;;26.02;49.85;100931.34;10349762;28;96685;-91
2023/07/09 18:42:41;;;;;;;1.35;0.77;;;;;;;25.95;49.49;100928.38;10306573;28;96606;-92
2023/07/09 18:47:45;;;;;;;2.73;1.00;;;;;;;25.82;49.81;100936.72;10349357;28;97841;-95
2023/07/09 18:52:49;;;;;;;;;;;;;;;25.66;50.94;100941.78;10346589;28;96871;-91
2023/07/09 18:57:53;;;;;;;3.15;0.73;;;;;;;25.57;50.61;100937.22;10345340;28;96839;-94
2023/07/09 19:02:56;;;;;;;;;;;;;;;25.43;51.67;100937.63;10346013;28;96647;-94
2023/07/09 19:08:15;;;;;;;2.20;0.90;;;;;;;25.31;51.52;100938.72;10343880;28;97507;-90
2023/07/09 19:13:21;;;;;;;3.30;1.23;;;;;;;25.24;51.67;100940.25;10342111;28;97150;-92
2023/07/09 19:18:27;;;;;;;1.98;0.95;;;;;;;25.08;52.07;100941.78;10338791;28;96757;-95
2023/07/09 19:23:32;;;;;;;2.55;1.00;;;;;;;24.95;52.56;100944.66;10339795;28;96868;-91
2023/07/09 19:28:36;;;;;;;2.83;0.95;;;;;;;24.77;53.10;100943.59;10340459;28;96811;-92
2023/07/09 19:33:43;;;;;;;3.33;1.20;;;;;;;24.86;52.86;100944.63;10377482;28;96587;-94
2023/07/09 19:38:51;;;;;;;1.60;0.70;;;;;;;24.54;53.50;100948.28;10380391;28;97831;-91
2023/07/09 19:43:56;;;;;;;1.67;0.90;;;;;;;24.60;53.40;100947.75;10379069;28;96704;-92
2023/07/09 19:49:01;;;;;;;3.72;1.00;;;;;;;24.49;53.90;100953.22;10376316;28;97423;-92
2023/07/09 19:54:15;;;;;;;3.00;0.77;;;;;;;24.42;53.93;100954.72;10373174;28;96854;-90
2023/07/09 19:59:20;;;;;;;2.17;0.98;;;;;;;24.41;53.96;100961.09;10373943;28;97540;-90
2023/07/09 20:04:25;;;;;;;1.73;0.90;;;;;;;24.42;54.51;100975.41;10372016;28;97654;-90
2023/07/09 20:09:33;;;;;;;1.50;0.85;;;;;;;24.38;54.76;100968.56;10372605;28;96664;-90
2023/07/09 20:14:37;;;;;;;2.85;0.77;;;;;;;24.26;54.96;100980.34;10337216;28;96754;-90
2023/07/09 20:19:43;;;;;;;3.80;0.90;;;;;;;24.00;55.73;100982.53;10331992;28;99088;-89
2023/07/09 20:24:50;;;;;;;1.67;0.80;;;;;;;23.80;56.39;100986.03;10290108;28;97538;-89
2023/07/09 20:29:54;;;;;;;1.50;0.93;;;;;;;23.67;56.87;100990.69;10290022;28;96876;-89
2023/07/09 20:35:01;;;;;;;2.70;0.70;;;;;;;23.60;57.18;100997.56;10290216;28;97122;-90
2023/07/09 20:40:06;;;;;;;;;;;;;;;23.47;57.98;100991.47;10318048;28;96574;-89
2023/07/09 20:45:15;;;;;;;1.67;0.90;;;;;;;23.38;57.34;100998.44;10330142;28;96765;-89
2023/07/09 20:50:22;;;;;;;1.95;0.88;;;;;;;23.35;57.40;101005.88;10331026;28;97055;-89
2023/07/09 20:55:26;;;;;;;1.13;0.75;;;;;;;23.32;57.62;101006.13;10337630;28;97802;-89
2023/07/09 21:00:30;;;;;;;3.95;1.17;;;;;;;23.11;58.07;101015.91;10337189;28;96605;-89
2023/07/09 21:05:52;;;;;;;2.53;0.85;;;;;;;23.07;58.21;101020.66;10336276;28;97758;-89
2023/07/09 21:10:57;;;;;;;2.17;1.02;;;;;;;22.84;58.84;101023.41;10338672;28;96888;-89
2023/07/09 21:16:01;;;;;;;1.73;0.95;;;;;;;22.75;59.09;101032.19;10378716;28;96586;-89
2023/07/09 21:21:05;;;;;;;3.08;1.30;;;;;;;22.73;59.08;101032.31;10377604;28;97455;-89
2023/07/09 21:26:15;;;;;;;2.15;1.10;;;;;;;22.60;59.47;101032.38;10377256;28;97231;-89
2023/07/09 21:31:20;;;;;;;1.33;0.90;;;;;;;22.46;59.77;101040.63;10375863;28;97010;-90
2023/07/09 21:36:23;;;;;;;3.20;1.13;;;;;;;22.54;59.65;101042.75;10377318;28;96578;-89
2023/07/09 21:41:28;;;;;;;2.20;0.93;;;;;;;22.43;60.14;101053.41;10377007;28;97505;-89
2023/07/09 21:46:31;;;;;;;1.70;0.98;;;;;;;22.34;60.20;101054.09;10376579;28;96682;-89
2023/07/09 21:51:34;;;;;;;1.65;0.75;;;;;;;22.25;60.45;101058.34;10377041;28;97126;-89
2023/07/09 21:56:39;;;;;;;3.35;1.10;;;;;;;22.05;61.22;101067.03;10376706;28;96736;-91
2023/07/09 22:01:43;;;;;;;2.78;1.08;;;;;;;22.02;60.93;101069.06;10374838;28;96799;-89
2023/07/09 22:06:46;;;;;;;;;;;;;;;21.74;62.42;101072.88;10377799;28;97832;-90
2023/07/09 22:11:52;;;;;;;1.33;0.70;;;;;;;21.78;61.62;101068.16;10342171;28;96899;-90
2023/07/09 22:16:57;;;;;;;2.53;0.95;;;;;;;21.87;61.50;101072.81;10334488;28;96753;-90
2023/07/09 22:22:02;;;;;;;3.33;1.00;;;;;;;21.87;61.19;101072.81;10333947;28;96622;-89
2023/07/09 22:27:10;;;;;;;1.60;1.00;;;;;;;21.67;61.62;101073.44;10334556;28;97493;-89
2023/07/09 22:32:32;;;;;;;2.17;1.10;;;;;;;21.61;62.00;101077.41;10327928;28;97721;-89
2023/07/09 22:37:37;;;;;;;2.33;1.10;;;;;;;21.36;62.60;101072.09;10335078;28;96674;-90
2023/07/09 22:42:44;;;;;;;2.60;1.15;;;;;;;21.37;62.84;101068.44;10333790;28;97464;-89
2023/07/09 22:47:55;;;;;;;3.83;1.20;;;;;;;21.78;61.71;101076.22;10334100;28;96691;-89
2023/07/09 22:53:00;;;;;;;2.78;0.85;;;;;;;21.96;61.18;101070.34;10334186;28;96767;-89
2023/07/09 22:58:09;;;;;;;1.55;0.90;;;;;;;21.45;62.37;101072.28;10334311;28;96576;-89
2023/07/09 23:03:17;;;;;;;3.60;1.15;;;;;;;21.66;62.30;101064.53;10333244;28;96830;-89
2023/07/09 23:08:24;;;;;;;2.22;1.00;;;;;;;21.54;62.73;101075.31;10333436;28;97522;-89
2023/07/09 23:13:33;;;;;;;1.88;1.40;;;;;;;21.44;62.89;101069.72;10362765;28;97236;-90
2023/07/09 23:18:38;;;;;;;2.63;1.30;;;;;;;21.59;62.41;101076.66;10374204;28;96726;-89
2023/07/09 23:23:43;;;;;;;1.70;1.00;;;;;;;21.38;62.70;101072.88;10373463;28;97353;-88
2023/07/09 23:28:50;;;;;;;4.60;1.27;;;;;;;21.26;63.04;101074.56;10373264;28;97739;-88
2023/07/09 23:33:56;;;;;;;2.25;1.10;;;;;;;21.09;63.74;101068.66;10373763;28;96645;-89
2023/07/09 23:39:00;;;;;;;1.58;1.00;;;;;;;20.82;64.34;101070.56;10373240;28;96871;-88